METAR AND TAF INFORMATION
METAR FOR LEZL
ADDS - METARS form results

(0523 UTC 27 November 2021)
Data provider http://aviationweather.gov/metar/data/
 
METAR text: LEZL 270500Z VRB02KT CAVOK 05/03 Q1012 NOSIG
Conditions at: LEZL (SEVILLA (CIV/MIL, ES) observed 0500 UTC 27 November 2021
Temperature: 5.0°C (41°F)
Dewpoint: 3.0°C (37°F) [RH = 87%]
Pressure (altimeter): 29.88 inches Hg (1012.0 mb)
Winds: variable direction winds at 2 MPH (2 knots; 1.0 m/s)
Visibility: 6 or more miles (10+ km)
Ceiling: ceiling and visibility are OK
Clouds: unknown
Weather: no significant weather observed at this time

METAR text: LEZL 270430Z 29003KT CAVOK 05/03 Q1013 NOSIG
Conditions at: LEZL (SEVILLA (CIV/MIL, ES) observed 0430 UTC 27 November 2021
Temperature: 5.0°C (41°F)
Dewpoint: 3.0°C (37°F) [RH = 87%]
Pressure (altimeter): 29.91 inches Hg (1013.0 mb)
Winds: from the WNW (290 degrees) at 3 MPH (3 knots; 1.5 m/s)
Visibility: 6 or more miles (10+ km)
Ceiling: ceiling and visibility are OK
Clouds: unknown
Weather: no significant weather observed at this time

Forecast for: LEZL (SEVILLA (CIV/MIL, ES)
Text: TAF LEZL 270200Z 2703/2803 31008KT CAVOK TX16/2714Z TN02/2705Z
Forecast period: 0300 UTC 27 November 2021 to 0300 UTC 28 November 2021
Forecast type: FROM: standard forecast or significant change
Winds: from the NW (310 degrees) at 9 MPH (8 knots; 4.1 m/s)
Visibility: 6 or more miles (10+ km)
Ceiling: unknown
Clouds: missing
Weather: no significant weather forecast for this period
Text: PROB40
Forecast period: 0300 to 0800 UTC 27 November 2021
Forecast type: TEMPORARY: The following changes expected for less than half the time period
Visibility: 2.49 miles (4.01 km)
Ceiling: 900 feet AGL
Clouds: broken clouds at 900 feet AGL
Weather: BR  (mist)
Text: TEMPO 2703/2708 4000 BR BKN009
Forecast period: 0300 to 0800 UTC 27 November 2021
Forecast type: TEMPORARY: The following changes expected for less than half the time period
Visibility: 0.31 miles (0.50 km)
Ceiling: indefinite ceiling with vertical visibility of 100 feet AGL
Clouds: obscured sky
Weather: FG  (fog)

 AIRPORT MAP

 RUNWAY INFORMATION
Runway 09 Runway length 11024 ft Runway width 148 ft
Runway elevation 83 ft Runway displaced threshold 0 ft Runway heading 90
Runway 27 Runway length 11024 ft Runway width 148 ft
Runway elevation 111 ft Runway displaced threshold 0 ft Runway heading 270

 AIRPORT FREQUENCIES
Type APP Name APP Frequency 120 MHZ
Type ATIS Name ATIS Frequency 118.175 MHZ
Type GND Name GND Frequency 121.7 MHZ
Type TWR Name TWR Frequency 118.1 MHZ

 AIRPORT NEAR NAVIGATION AIDS
Type NDB Name Sevilla Frequency 420 KHZ
Type VOR-DME Name Sevilla Frequency 113700 KHZ





Powered by Virtual Airlines Manager

Maps by Rafael Santos